Terminal Aerodrome Forecast
Issued by NWS Louisville, KY

Home | Current Version | Previous Version | Text Only | Print | Product List | Glossary On
Versions: 1 2 3 4 5 6 7 8 9 10 11 12 13 14 15 16 17 18
256
FTUS43 KLMK 270524
TAFBWG
TAF
KBWG 270524Z 2706/2806 VRB03KT P6SM SCT250
     FM271000 VRB03KT 4SM BR BKN100
     FM271500 19010G16KT P6SM VCSH SCT030 BKN150
     FM272100 18007KT P6SM -SHRA VCTS SCT035CB BKN080
     FM280200 20007KT 4SM SHRA BR VCTS BKN035CB=

USA.gov is the U.S. government's official web portal to all federal, state and local government web resources and services.